GMAD/AGA METAR and TAF weather

Enter ICAO airport designator
Station Type Date Time Source
GMAD METAR 2019/06/17 12:00 UTC NOAA

GMAD 171200Z 27013KT 220V310 9999 FEW020 25/16 Q1016 NOSIG


Station Type Date Time Source
GMAD Decoded METAR 2019/06/17 12:00 UTC NOAA

Agadir Al Massira, Morocco (GMAD) 30-20N 009-24W 74M
Jun 17, 2019 - 08:00 AM EDT / 2019.06.17 1200 UTC
Wind: from the W (270 degrees) at 15 MPH (13 KT) (direction variable):0
Visibility: greater than 7 mile(s):0
Sky conditions: mostly clear
Temperature: 77 F (25 C)
Dew Point: 60 F (16 C)
Relative Humidity: 57%
Pressure (altimeter): 30.00 in. Hg (1016 hPa)
ob: GMAD 171200Z 27013KT 220V310 9999 FEW020 25/16 Q1016 NOSIG
cycle: 12

Station Type Date Time Source
GMAD TAF 2019/06/17 12:30 UTC NOAA

TAF TAF GMAD 171100Z 1712/1818 16003KT 9999 FEW020
BECMG 1714/1716 27012KT
BECMG 1720/1722 14004KT

Example: see airport list